Terminal Aerodrome Forecast
Issued by NWS

Home | Current Version | Previous Version | Text Only | Print | Product List | Glossary On
Versions: 1 2 3 4 5 6 7 8 9 10 11 12 13 14 15 16 17 18 19 20 21 22 23 24 25
000
FTUS46 KMFR 300524
TAFOTH
TAF
KOTH 300524Z 3006/3106 VRB04KT P6SM OVC008
     FM301300 15004KT 1SM BR BKN002 BKN008
     FM301700 17005KT P6SM SCT006 BKN200
     FM302200 23012KT P6SM SCT150 BKN200
     FM310200 20014G20KT P6SM -RA BKN025 BKN050 BKN080
     FM310400 20014G20KT P6SM -RA BKN025 OVC050=

USA.gov is the U.S. government's official web portal to all federal, state and local government web resources and services.